createdAt,value
2023-03-19T00:00:44.809Z,14.29
2023-03-19T00:03:17.490Z,14.24
2023-03-19T00:05:54.054Z,14.18
2023-03-19T00:08:26.988Z,14.22
2023-03-19T00:10:59.519Z,14.19
2023-03-19T00:13:33.580Z,14.13
2023-03-19T00:16:06.919Z,14.13
2023-03-19T00:18:39.648Z,14.16
2023-03-19T00:21:12.341Z,14.20
2023-03-19T00:23:45.058Z,14.14
2023-03-19T00:26:17.726Z,14.10
2023-03-19T00:28:52.052Z,14.10
2023-03-19T00:31:25.632Z,14.05
2023-03-19T00:33:58.992Z,13.97
2023-03-19T00:36:31.645Z,13.96
2023-03-19T00:39:04.557Z,13.92
2023-03-19T00:41:37.887Z,13.89
2023-03-19T00:44:11.845Z,13.85
2023-03-19T00:46:44.616Z,13.87
2023-03-19T00:49:17.815Z,13.78
2023-03-19T00:51:50.889Z,13.80
2023-03-19T00:54:23.913Z,13.77
2023-03-19T00:56:56.872Z,13.74
2023-03-19T00:59:31.030Z,13.75
2023-03-19T01:02:04.307Z,13.76
2023-03-19T01:04:37.358Z,13.70
2023-03-19T01:07:10.134Z,13.74
2023-03-19T01:09:43.066Z,13.69
2023-03-19T01:12:15.607Z,13.57
2023-03-19T01:14:49.717Z,13.67
2023-03-19T01:17:22.942Z,13.58
2023-03-19T01:19:56.380Z,13.60
2023-03-19T01:22:29.311Z,13.57
2023-03-19T01:25:05.816Z,13.51
2023-03-19T01:27:38.458Z,13.46
2023-03-19T01:30:14.371Z,13.48
2023-03-19T01:33:07.385Z,13.44
2023-03-19T01:35:46.617Z,13.36
2023-03-19T01:38:19.710Z,13.32
2023-03-19T01:40:53.268Z,13.38
2023-03-19T01:43:27.975Z,13.26
2023-03-19T01:46:08.379Z,13.23
2023-03-19T01:48:59.863Z,13.30
2023-03-19T01:51:36.858Z,13.20
2023-03-19T01:54:31.188Z,13.24
2023-03-19T01:57:33.390Z,13.14
2023-03-19T02:00:29.282Z,13.09
2023-03-19T02:03:04.724Z,13.08
2023-03-19T02:05:57.554Z,13.14
2023-03-19T02:08:31.877Z,13.03
2023-03-19T02:11:06.413Z,12.99
2023-03-19T02:13:39.989Z,12.98
2023-03-19T02:16:13.015Z,12.98
2023-03-19T02:18:48.832Z,12.86
2023-03-19T02:21:22.597Z,12.99
2023-03-19T02:24:04.237Z,13.05
2023-03-19T02:26:54.951Z,13.04
2023-03-19T02:29:27.649Z,13.03
2023-03-19T02:32:03.969Z,12.98
2023-03-19T02:34:39.250Z,12.92
2023-03-19T02:37:17.514Z,13.04
2023-03-19T02:39:58.713Z,12.95
2023-03-19T02:42:32.799Z,12.95
2023-03-19T02:45:07.233Z,12.92
2023-03-19T02:47:40.207Z,12.91
2023-03-19T02:50:13.397Z,12.98
2023-03-19T02:52:46.341Z,12.90
2023-03-19T02:55:21.380Z,12.86
2023-03-19T02:57:56.033Z,12.91
2023-03-19T03:00:28.776Z,12.86
2023-03-19T03:03:02.808Z,12.85
2023-03-19T03:05:36.697Z,12.87
2023-03-19T03:08:09.396Z,12.88
2023-03-19T03:10:42.208Z,12.85
2023-03-19T03:13:16.295Z,12.86
2023-03-19T03:15:49.279Z,12.86
2023-03-19T03:18:22.131Z,12.85
2023-03-19T03:20:55.037Z,12.85
2023-03-19T03:23:27.687Z,12.84
2023-03-19T03:26:00.624Z,12.81
2023-03-19T03:28:35.290Z,12.88
2023-03-19T03:31:08.950Z,12.84
2023-03-19T03:33:42.050Z,12.85
2023-03-19T03:36:15.180Z,12.77
2023-03-19T03:38:47.935Z,12.83
2023-03-19T03:41:21.453Z,12.80
2023-03-19T03:43:55.565Z,12.74
2023-03-19T03:46:28.608Z,12.75
2023-03-19T03:49:01.363Z,12.81
2023-03-19T03:51:34.573Z,12.78
2023-03-19T03:54:08.080Z,12.78
2023-03-19T03:56:41.025Z,12.82
2023-03-19T03:59:15.281Z,12.72
2023-03-19T04:01:48.319Z,12.73
2023-03-19T04:04:21.096Z,12.71
2023-03-19T04:06:53.996Z,12.72
2023-03-19T04:09:52.974Z,12.74
2023-03-19T04:12:26.265Z,12.74
2023-03-19T04:15:00.643Z,12.66
2023-03-19T04:17:33.853Z,12.69
2023-03-19T04:20:07.677Z,12.69
2023-03-19T04:22:40.481Z,12.62
2023-03-19T04:25:13.339Z,12.62
2023-03-19T04:27:46.907Z,12.69
2023-03-19T04:30:21.252Z,12.70
2023-03-19T04:32:54.072Z,12.71
2023-03-19T04:35:27.170Z,12.75
2023-03-19T04:38:00.034Z,12.67
2023-03-19T04:40:33.221Z,12.66
2023-03-19T04:43:06.242Z,12.72
2023-03-19T04:45:41.805Z,12.75
2023-03-19T04:48:14.505Z,12.63
2023-03-19T04:50:51.780Z,12.68
2023-03-19T04:53:25.265Z,12.62
2023-03-19T04:55:58.023Z,12.59
2023-03-19T04:58:30.879Z,12.53
2023-03-19T05:01:09.245Z,12.59
2023-03-19T05:04:02.435Z,12.55
2023-03-19T05:06:37.662Z,12.58
2023-03-19T05:09:10.908Z,12.59
2023-03-19T05:11:43.569Z,12.54
2023-03-19T05:14:21.762Z,12.55
2023-03-19T05:17:16.272Z,12.52
2023-03-19T05:20:09.492Z,12.45
2023-03-19T05:22:44.838Z,12.48
2023-03-19T05:25:17.578Z,12.56
2023-03-19T05:27:50.907Z,12.59
2023-03-19T05:30:27.293Z,12.59
2023-03-19T05:33:09.753Z,12.55
2023-03-19T05:35:47.094Z,12.50
2023-03-19T05:38:28.661Z,12.55
2023-03-19T05:41:08.971Z,12.42
2023-03-19T05:43:49.792Z,12.49
2023-03-19T05:46:37.736Z,12.51
2023-03-19T05:49:11.853Z,12.34
2023-03-19T05:51:44.613Z,12.26
2023-03-19T05:54:17.353Z,12.25
2023-03-19T05:57:05.197Z,12.25
2023-03-19T05:59:38.009Z,12.30
2023-03-19T06:02:29.285Z,12.30
2023-03-19T06:05:19.170Z,12.27
2023-03-19T06:07:52.302Z,12.30
2023-03-19T06:10:43.062Z,12.26
2023-03-19T06:13:17.063Z,12.28
2023-03-19T06:16:04.833Z,12.20
2023-03-19T06:18:41.006Z,12.27
2023-03-19T06:21:19.613Z,12.22
2023-03-19T06:23:52.681Z,12.29
2023-03-19T06:26:32.371Z,12.37
2023-03-19T06:29:06.171Z,12.24
2023-03-19T06:31:41.643Z,12.36
2023-03-19T06:34:27.635Z,12.32
2023-03-19T06:37:02.020Z,12.28
2023-03-19T06:39:35.035Z,12.31
2023-03-19T06:42:08.218Z,12.30
2023-03-19T06:44:41.213Z,12.22
2023-03-19T06:47:14.282Z,12.24
2023-03-19T06:49:47.822Z,12.23
2023-03-19T06:52:22.339Z,12.25
2023-03-19T06:54:55.306Z,12.31
2023-03-19T06:57:27.880Z,12.28
2023-03-19T07:00:00.907Z,12.30
2023-03-19T07:02:33.705Z,12.22
2023-03-19T07:05:07.509Z,12.35
2023-03-19T07:07:41.714Z,12.32
2023-03-19T07:10:14.754Z,12.34
2023-03-19T07:12:47.491Z,12.24
2023-03-19T07:15:21.507Z,12.34
2023-03-19T07:17:54.187Z,12.39
2023-03-19T07:20:27.054Z,12.41
2023-03-19T07:23:01.264Z,12.40
2023-03-19T07:25:34.142Z,12.41
2023-03-19T07:28:06.869Z,12.41
2023-03-19T07:30:39.912Z,12.48
2023-03-19T07:33:14.060Z,12.39
2023-03-19T07:35:46.965Z,12.37
2023-03-19T07:38:21.154Z,12.41
2023-03-19T07:41:01.898Z,12.54
2023-03-19T07:43:35.375Z,12.51
2023-03-19T07:46:09.312Z,12.50
2023-03-19T07:48:42.144Z,12.52
2023-03-19T07:51:14.826Z,12.52
2023-03-19T07:53:49.037Z,12.52
2023-03-19T07:56:21.961Z,12.58
2023-03-19T07:58:54.696Z,12.57
2023-03-19T08:01:31.356Z,12.63
2023-03-19T08:04:06.381Z,12.62
2023-03-19T08:06:41.319Z,12.59
2023-03-19T08:09:25.536Z,12.57
2023-03-19T08:11:58.314Z,12.59
2023-03-19T08:14:31.067Z,12.72
2023-03-19T08:17:03.815Z,12.73
2023-03-19T08:19:36.488Z,12.61
2023-03-19T08:22:09.420Z,12.61
2023-03-19T08:24:43.628Z,12.67
2023-03-19T08:27:16.842Z,12.69
2023-03-19T08:29:49.614Z,12.71
2023-03-19T08:32:22.566Z,12.84
2023-03-19T08:34:55.860Z,12.85
2023-03-19T08:37:28.748Z,12.83
2023-03-19T08:40:03.011Z,12.81
2023-03-19T08:42:38.835Z,12.88
2023-03-19T08:45:13.766Z,12.90
2023-03-19T08:47:46.624Z,12.91
2023-03-19T08:50:19.713Z,12.91
2023-03-19T08:52:52.752Z,12.93
2023-03-19T08:55:26.716Z,12.97
2023-03-19T08:57:59.665Z,12.99
2023-03-19T09:00:32.514Z,13.06
2023-03-19T09:03:06.952Z,13.12
2023-03-19T09:05:39.767Z,13.17
2023-03-19T09:08:12.578Z,13.17
2023-03-19T09:10:46.762Z,13.20
2023-03-19T09:13:22.329Z,13.25
2023-03-19T09:15:55.397Z,13.30
2023-03-19T09:18:28.324Z,13.32
2023-03-19T09:21:01.089Z,13.30
2023-03-19T09:23:34.116Z,13.33
2023-03-19T09:26:08.192Z,13.34
2023-03-19T09:28:41.159Z,13.31
2023-03-19T09:31:13.890Z,13.30
2023-03-19T09:33:46.729Z,13.38
2023-03-19T09:36:19.487Z,13.40
2023-03-19T09:38:52.513Z,13.45
2023-03-19T09:41:33.991Z,13.48
2023-03-19T09:44:14.120Z,13.49
2023-03-19T09:46:53.625Z,13.50
2023-03-19T09:49:29.774Z,13.57
2023-03-19T09:52:16.319Z,13.60
2023-03-19T09:54:52.499Z,13.61
2023-03-19T09:57:29.785Z,13.65
2023-03-19T10:00:05.031Z,13.67
2023-03-19T10:02:41.831Z,13.69
2023-03-19T10:05:25.131Z,13.67
2023-03-19T10:08:06.350Z,13.67
2023-03-19T10:11:04.767Z,13.69
2023-03-19T10:13:53.862Z,13.68
2023-03-19T10:16:29.994Z,13.78
2023-03-19T10:19:05.756Z,13.73
2023-03-19T10:21:42.241Z,13.79
2023-03-19T10:24:22.591Z,13.82
2023-03-19T10:27:00.304Z,13.80
2023-03-19T10:29:35.632Z,13.80
2023-03-19T10:32:18.302Z,13.82
2023-03-19T10:34:53.955Z,13.82
2023-03-19T10:37:30.020Z,13.79
2023-03-19T10:40:03.495Z,13.85
2023-03-19T10:42:46.076Z,13.92
2023-03-19T10:45:28.574Z,13.88
2023-03-19T10:48:03.801Z,13.93
2023-03-19T10:50:39.770Z,13.97
2023-03-19T10:53:31.442Z,14.04
2023-03-19T10:56:06.615Z,14.04
2023-03-19T10:58:40.449Z,14.10
2023-03-19T11:01:14.636Z,14.11
2023-03-19T11:03:52.846Z,14.03
2023-03-19T11:06:28.372Z,14.22
2023-03-19T11:09:02.593Z,14.34
2023-03-19T11:11:37.900Z,14.41
2023-03-19T11:14:19.302Z,14.38
2023-03-19T11:17:05.398Z,14.57
2023-03-19T11:19:42.342Z,14.63
2023-03-19T11:22:21.194Z,14.75
2023-03-19T11:24:56.396Z,14.76
2023-03-19T11:27:31.533Z,14.88
2023-03-19T11:30:15.105Z,15.06
2023-03-19T11:33:13.825Z,15.16
2023-03-19T11:35:52.663Z,15.31
2023-03-19T11:38:38.038Z,15.43
2023-03-19T11:41:20.463Z,15.56
2023-03-19T11:43:57.813Z,15.74
2023-03-19T11:46:41.741Z,15.90
2023-03-19T11:49:50.777Z,15.97
2023-03-19T11:52:31.188Z,16.01
2023-03-19T11:55:23.205Z,15.97
2023-03-19T11:58:09.325Z,15.97
2023-03-19T12:00:47.650Z,15.98
2023-03-19T12:03:53.842Z,16.13
2023-03-19T12:06:42.077Z,16.04
2023-03-19T12:09:28.301Z,16.09
2023-03-19T12:12:13.347Z,16.03
2023-03-19T12:14:59.380Z,16.06
2023-03-19T12:18:04.364Z,16.07
2023-03-19T12:20:47.497Z,16.14
2023-03-19T12:23:28.666Z,16.17
2023-03-19T12:26:09.062Z,16.11
2023-03-19T12:28:45.824Z,16.13
2023-03-19T12:31:35.621Z,16.13
2023-03-19T12:34:20.815Z,16.19
2023-03-19T12:36:58.565Z,16.18
2023-03-19T12:39:37.525Z,16.21
2023-03-19T12:42:18.817Z,16.35
2023-03-19T12:44:56.895Z,16.41
2023-03-19T12:47:34.819Z,16.44
2023-03-19T12:50:10.672Z,16.45
2023-03-19T12:52:46.677Z,16.51
2023-03-19T12:55:23.611Z,16.57
2023-03-19T12:58:00.115Z,16.49
2023-03-19T13:00:35.823Z,16.56
2023-03-19T13:03:15.690Z,16.56
2023-03-19T13:05:54.045Z,16.44
2023-03-19T13:08:34.165Z,16.46
2023-03-19T13:11:14.883Z,16.40
2023-03-19T13:13:54.597Z,16.37
2023-03-19T13:16:34.913Z,16.36
2023-03-19T13:19:18.077Z,16.40
2023-03-19T13:21:54.479Z,16.33
2023-03-19T13:24:30.932Z,16.35
2023-03-19T13:27:08.278Z,16.39
2023-03-19T13:29:54.305Z,16.46
2023-03-19T13:32:37.130Z,16.51
2023-03-19T13:35:21.581Z,16.49
2023-03-19T13:37:59.021Z,16.52
2023-03-19T13:40:44.628Z,16.51
2023-03-19T13:43:43.996Z,16.51
2023-03-19T13:46:40.559Z,16.55
2023-03-19T13:49:28.819Z,16.57
2023-03-19T13:52:37.834Z,16.50
2023-03-19T13:55:34.439Z,16.47
2023-03-19T13:58:38.025Z,16.45
2023-03-19T14:01:33.797Z,16.43
2023-03-19T14:04:18.568Z,16.43
2023-03-19T14:06:54.366Z,16.27
2023-03-19T14:09:46.108Z,16.32
2023-03-19T14:12:32.953Z,16.33
2023-03-19T14:15:18.121Z,16.25
2023-03-19T14:18:07.187Z,16.18
2023-03-19T14:21:06.402Z,16.12
2023-03-19T14:23:47.223Z,16.06
2023-03-19T14:26:30.615Z,15.99
2023-03-19T14:29:07.325Z,15.99
2023-03-19T14:31:46.208Z,15.96
2023-03-19T14:34:23.179Z,15.96
2023-03-19T14:37:02.871Z,15.85
2023-03-19T14:39:40.972Z,15.78
2023-03-19T14:42:20.870Z,15.78
2023-03-19T14:45:32.522Z,15.78
2023-03-19T14:48:21.824Z,15.76
2023-03-19T14:51:36.017Z,15.70
2023-03-19T14:54:21.767Z,15.63
2023-03-19T14:56:57.532Z,15.63
2023-03-19T14:59:38.124Z,15.55
2023-03-19T15:02:22.794Z,15.52
2023-03-19T15:04:58.342Z,15.46
2023-03-19T15:07:38.459Z,15.41
2023-03-19T15:10:18.658Z,15.40
2023-03-19T15:13:19.854Z,15.35
2023-03-19T15:16:05.341Z,15.29
2023-03-19T15:18:38.842Z,15.25
2023-03-19T15:21:11.711Z,15.23
2023-03-19T15:23:47.818Z,15.20
2023-03-19T15:26:32.939Z,15.19
2023-03-19T15:29:05.911Z,15.15
2023-03-19T15:31:51.796Z,15.15
2023-03-19T15:34:30.743Z,15.09
2023-03-19T15:37:07.869Z,15.06
2023-03-19T15:39:46.175Z,15.07
2023-03-19T15:42:23.480Z,15.03
2023-03-19T15:45:03.668Z,15.05
2023-03-19T15:47:41.237Z,15.00
2023-03-19T15:50:17.052Z,14.99
2023-03-19T15:52:55.559Z,14.97
2023-03-19T15:55:28.750Z,14.94
2023-03-19T15:58:07.600Z,14.93
2023-03-19T16:00:42.201Z,14.92
2023-03-19T16:03:19.819Z,14.86
2023-03-19T16:05:59.643Z,14.86
2023-03-19T16:08:32.520Z,14.85
2023-03-19T16:11:15.511Z,14.81
2023-03-19T16:13:57.999Z,14.77
2023-03-19T16:16:32.216Z,14.74
2023-03-19T16:19:05.243Z,14.71
2023-03-19T16:21:39.530Z,14.71
2023-03-19T16:24:23.303Z,14.69
2023-03-19T16:26:58.347Z,14.64
2023-03-19T16:29:38.585Z,14.62
2023-03-19T16:32:20.840Z,14.55
2023-03-19T16:34:55.452Z,14.51
2023-03-19T16:37:33.902Z,14.49
2023-03-19T16:40:40.886Z,14.47
2023-03-19T16:43:19.561Z,14.42
2023-03-19T16:46:04.743Z,14.38
2023-03-19T16:48:37.508Z,14.34
2023-03-19T16:51:17.863Z,14.24
2023-03-19T16:53:51.129Z,14.20
2023-03-19T16:56:23.762Z,14.21
2023-03-19T16:58:56.552Z,14.20
2023-03-19T17:01:31.416Z,14.19
2023-03-19T17:04:11.287Z,14.14
2023-03-19T17:06:44.155Z,14.11
2023-03-19T17:09:16.821Z,14.07
2023-03-19T17:11:49.689Z,14.09
2023-03-19T17:14:22.829Z,14.06
2023-03-19T17:16:57.232Z,14.01
2023-03-19T17:19:35.398Z,13.96
2023-03-19T17:22:13.194Z,13.94
2023-03-19T17:24:46.099Z,13.91
2023-03-19T17:27:18.795Z,13.86
2023-03-19T17:29:51.530Z,13.78
2023-03-19T17:32:25.923Z,13.79
2023-03-19T17:34:58.682Z,13.88
2023-03-19T17:37:32.283Z,13.85
2023-03-19T17:40:17.399Z,13.83
2023-03-19T17:42:51.905Z,13.86
2023-03-19T17:45:27.684Z,13.87
2023-03-19T17:48:02.011Z,13.87
2023-03-19T17:50:35.021Z,13.83
2023-03-19T17:53:11.736Z,13.82
2023-03-19T17:55:44.474Z,13.65
2023-03-19T17:58:19.150Z,13.60
2023-03-19T18:00:53.133Z,13.65
2023-03-19T18:03:28.952Z,13.61
2023-03-19T18:06:06.670Z,13.54
2023-03-19T18:08:39.459Z,13.57
2023-03-19T18:11:12.547Z,13.55
2023-03-19T18:13:45.268Z,13.51
2023-03-19T18:16:22.566Z,13.42
2023-03-19T18:19:00.363Z,13.50
2023-03-19T18:21:33.486Z,13.46
2023-03-19T18:24:09.104Z,13.46
2023-03-19T18:26:41.915Z,13.41
2023-03-19T18:29:16.380Z,13.48
2023-03-19T18:31:51.117Z,13.45
2023-03-19T18:34:26.477Z,13.45
2023-03-19T18:37:00.022Z,13.42
2023-03-19T18:39:36.331Z,13.28
2023-03-19T18:42:10.688Z,13.32
2023-03-19T18:44:44.221Z,13.24
2023-03-19T18:47:17.192Z,13.28
2023-03-19T18:49:54.010Z,13.25
2023-03-19T18:52:26.785Z,13.20
2023-03-19T18:54:59.592Z,13.20
2023-03-19T18:57:32.478Z,13.17
2023-03-19T19:00:07.829Z,13.11
2023-03-19T19:02:40.618Z,13.12
2023-03-19T19:05:18.450Z,13.09
2023-03-19T19:07:51.486Z,13.08
2023-03-19T19:10:24.582Z,13.03
2023-03-19T19:12:57.772Z,13.06
2023-03-19T19:15:33.808Z,13.09
2023-03-19T19:18:15.817Z,12.95
2023-03-19T19:20:52.487Z,12.93
2023-03-19T19:23:27.256Z,12.97
2023-03-19T19:26:00.117Z,12.93
2023-03-19T19:28:35.862Z,12.87
2023-03-19T19:31:23.632Z,12.92
2023-03-19T19:33:56.842Z,12.89
2023-03-19T19:36:31.682Z,12.88
2023-03-19T19:39:04.724Z,12.87
2023-03-19T19:41:40.584Z,12.87
2023-03-19T19:44:19.874Z,12.79
2023-03-19T19:46:54.527Z,12.81
2023-03-19T19:49:27.208Z,12.80
2023-03-19T19:52:01.667Z,12.85
2023-03-19T19:54:37.096Z,12.78
2023-03-19T19:57:19.348Z,12.81
2023-03-19T19:59:53.488Z,12.77
2023-03-19T20:02:28.706Z,12.75
2023-03-19T20:05:01.487Z,12.67
2023-03-19T20:07:36.084Z,12.59
2023-03-19T20:10:09.870Z,12.69
2023-03-19T20:12:44.911Z,12.65
2023-03-19T20:15:20.576Z,12.63
2023-03-19T20:17:54.633Z,12.61
2023-03-19T20:20:31.349Z,12.59
2023-03-19T20:23:05.445Z,12.56
2023-03-19T20:25:38.506Z,12.61
2023-03-19T20:28:17.286Z,12.61
2023-03-19T20:30:53.752Z,12.55
2023-03-19T20:33:27.376Z,12.56
2023-03-19T20:36:00.578Z,12.58
2023-03-19T20:38:37.417Z,12.57
2023-03-19T20:41:20.216Z,12.57
2023-03-19T20:43:53.898Z,12.50
2023-03-19T20:46:26.693Z,12.48
2023-03-19T20:49:01.522Z,12.53
2023-03-19T20:51:34.305Z,12.56
2023-03-19T20:54:08.876Z,12.48
2023-03-19T20:56:43.039Z,12.54
2023-03-19T20:59:15.726Z,12.51
2023-03-19T21:01:48.533Z,12.50
2023-03-19T21:04:21.570Z,12.45
2023-03-19T21:06:54.515Z,12.44
2023-03-19T21:09:28.797Z,12.53
2023-03-19T21:12:01.477Z,12.48
2023-03-19T21:14:34.799Z,12.51
2023-03-19T21:17:07.577Z,12.49
2023-03-19T21:19:42.685Z,12.42
2023-03-19T21:22:17.778Z,12.51
2023-03-19T21:24:54.394Z,12.58
2023-03-19T21:27:28.873Z,12.51
2023-03-19T21:30:05.311Z,12.42
2023-03-19T21:32:38.093Z,12.45
2023-03-19T21:35:17.565Z,12.44
2023-03-19T21:37:52.358Z,12.40
2023-03-19T21:40:31.564Z,12.45
2023-03-19T21:43:05.000Z,12.44
2023-03-19T21:45:38.040Z,12.41
2023-03-19T21:48:24.303Z,12.49
2023-03-19T21:50:57.996Z,12.41
2023-03-19T21:53:31.169Z,12.40
2023-03-19T21:56:05.512Z,12.46
2023-03-19T21:58:38.172Z,12.34
2023-03-19T22:01:18.011Z,12.43
2023-03-19T22:03:51.586Z,12.37
2023-03-19T22:06:24.971Z,12.37
2023-03-19T22:08:57.697Z,12.38
2023-03-19T22:11:34.491Z,12.33
2023-03-19T22:14:13.087Z,12.36
2023-03-19T22:16:46.486Z,12.32
2023-03-19T22:19:19.230Z,12.37
2023-03-19T22:21:51.956Z,12.37
2023-03-19T22:24:24.698Z,12.33
2023-03-19T22:26:59.131Z,12.40
2023-03-19T22:29:34.003Z,12.16
2023-03-19T22:32:10.618Z,12.04
2023-03-19T22:34:43.619Z,12.07
2023-03-19T22:37:24.534Z,12.08
2023-03-19T22:39:57.416Z,12.08
2023-03-19T22:42:31.362Z,12.03
2023-03-19T22:45:04.351Z,12.02
2023-03-19T22:47:38.811Z,12.13
2023-03-19T22:50:18.485Z,11.98
2023-03-19T22:52:51.853Z,11.91
2023-03-19T22:55:25.124Z,11.93
2023-03-19T22:57:59.285Z,11.99
2023-03-19T23:00:31.998Z,11.93
2023-03-19T23:03:06.887Z,11.95
2023-03-19T23:05:42.257Z,11.88
2023-03-19T23:08:18.009Z,11.88
2023-03-19T23:10:53.420Z,11.83
2023-03-19T23:13:27.512Z,11.83
2023-03-19T23:16:02.427Z,11.80
2023-03-19T23:18:37.597Z,11.79
2023-03-19T23:21:14.469Z,11.81
2023-03-19T23:23:47.712Z,11.75
2023-03-19T23:26:26.658Z,11.83
2023-03-19T23:29:07.999Z,11.71
2023-03-19T23:31:40.691Z,11.68
2023-03-19T23:34:13.614Z,11.71
2023-03-19T23:36:46.245Z,11.68
2023-03-19T23:39:19.543Z,11.65
2023-03-19T23:41:56.911Z,11.70
2023-03-19T23:44:31.194Z,11.70
2023-03-19T23:47:03.980Z,11.60
2023-03-19T23:49:36.935Z,11.60
2023-03-19T23:52:14.279Z,11.56
2023-03-19T23:54:47.596Z,11.54
2023-03-19T23:57:21.905Z,11.49
2023-03-19T23:59:56.760Z,11.46
